Time;durP1;ratioP1;P1;durP2;ratioP2;P2;SDS_P1;SDS_P2;PMS_P1;PMS_P2;Temp;Humidity;BMP_temperature;BMP_pressure;BME280_temperature;BME280_humidity;BME280_pressure;Samples;Min_cycle;Max_cycle;Signal;HPM_P1;HPM_P2
2022/09/24 00:01:37;;;;;;;;;;;14.40;86.50;;;;;;5048000;28;20419;-70
2022/09/24 00:04:04;;;;;;;;;;;14.40;86.30;;;;;;5029890;28;19920;-70
2022/09/24 00:06:32;;;;;;;;;;;14.40;86.40;;;;;;5047601;28;19998;-70
2022/09/24 00:08:58;;;;;;;;;;;14.40;86.40;;;;;;5047589;28;19909;-70
2022/09/24 00:11:25;;;;;;;;;;;14.40;86.40;;;;;;5047570;28;20391;-70
2022/09/24 00:13:51;;;;;;;;;;;14.40;86.50;;;;;;5047914;28;19912;-70
2022/09/24 00:16:18;;;;;;;;;;;14.40;86.40;;;;;;5047844;28;19913;-70
2022/09/24 00:18:44;;;;;;;;;;;14.40;86.40;;;;;;5047407;28;19916;-70
2022/09/24 00:21:13;;;;;;;;;;;14.30;86.30;;;;;;5051167;28;19927;-70
2022/09/24 00:23:39;;;;;;;;;;;14.30;86.40;;;;;;5047306;28;19997;-70
2022/09/24 00:28:49;;;;;;;;;;;14.30;86.40;;;;;;5047542;28;19916;-70
2022/09/24 00:31:15;;;;;;;;;;;14.30;86.30;;;;;;5047413;28;19992;-70
2022/09/24 00:33:42;;;;;;;;;;;14.30;86.50;;;;;;5047675;28;20329;-71
2022/09/24 00:36:07;;;;;;;;;;;14.30;86.50;;;;;;5046998;28;19913;-71
2022/09/24 00:38:33;;;;;;;;;;;14.30;86.60;;;;;;5046915;28;19917;-70
2022/09/24 00:40:59;;;;;;;;;;;14.30;86.60;;;;;;5047154;28;19970;-70
2022/09/24 00:43:28;;;;;;;;;;;14.30;86.50;;;;;;5047113;28;19936;-70
2022/09/24 00:45:55;;;;;;;;;;;14.30;86.60;;;;;;5047336;28;19913;-70
2022/09/24 00:48:20;;;;;;;;;;;14.30;86.60;;;;;;5047000;28;19913;-70
2022/09/24 00:50:46;;;;;;;;;;;14.30;86.60;;;;;;5046838;28;19913;-70
2022/09/24 00:53:22;;;;;;;;;;;14.30;86.70;;;;;;5046361;28;20310;-70
2022/09/24 00:55:53;;;;;;;;;;;14.30;86.60;;;;;;5046140;28;19917;-71
2022/09/24 00:58:19;;;;;;;;;;;14.30;86.80;;;;;;5046556;28;20011;-70
2022/09/24 01:00:44;;;;;;;;;;;14.30;86.80;;;;;;5046165;28;20000;-71
2022/09/24 01:03:12;;;;;;;;;;;14.30;86.80;;;;;;5046811;28;19913;-70
2022/09/24 01:05:38;;;;;;;;;;;14.20;86.70;;;;;;5046245;28;19913;-71
2022/09/24 01:08:05;;;;;;;;;;;14.30;86.90;;;;;;5046706;28;19913;-71
2022/09/24 01:10:49;;;;;;;;;;;14.30;86.80;;;;;;5045938;28;19999;-70
2022/09/24 01:13:15;;;;;;;;;;;14.20;86.90;;;;;;5046322;28;19917;-71
2022/09/24 01:15:47;;;;;;;;;;;14.20;86.80;;;;;;5045016;28;19923;-71
2022/09/24 01:18:25;;;;;;;;;;;14.20;87.00;;;;;;5046078;28;19956;-70
2022/09/24 01:21:09;;;;;;;;;;;14.20;87.00;;;;;;5045945;28;19952;-71
2022/09/24 01:23:43;;;;;;;;;;;14.20;87.00;;;;;;5046214;28;19912;-71
2022/09/24 01:26:38;;;;;;;;;;;14.20;87.00;;;;;;5044649;28;20515;-70
2022/09/24 01:29:22;;;;;;;;;;;14.20;86.90;;;;;;5014717;28;21504;-70
2022/09/24 01:31:52;;;;;;;;;;;14.20;87.00;;;;;;5045467;28;19920;-70
2022/09/24 01:34:21;;;;;;;;;;;14.20;87.30;;;;;;5046090;28;19913;-70
2022/09/24 01:36:47;;;;;;;;;;;14.20;87.00;;;;;;5040267;28;19909;-70
2022/09/24 01:39:13;;;;;;;;;;;14.20;87.00;;;;;;5044067;28;19920;-70
2022/09/24 01:41:41;;;;;;;;;;;14.20;87.00;;;;;;5045575;28;19949;-70
2022/09/24 01:44:06;;;;;;;;;;;14.20;87.10;;;;;;5045493;28;19919;-71
2022/09/24 01:46:32;;;;;;;;;;;14.20;87.20;;;;;;5046127;28;19916;-70
2022/09/24 01:48:58;;;;;;;;;;;14.20;87.20;;;;;;5045872;28;20019;-70
2022/09/24 01:51:33;;;;;;;;;;;14.20;87.20;;;;;;5045198;28;19913;-70
2022/09/24 01:54:22;;;;;;;;;;;14.20;87.20;;;;;;5044880;28;19966;-70
2022/09/24 01:56:50;;;;;;;;;;;14.20;87.20;;;;;;5035822;28;20423;-70
2022/09/24 01:59:16;;;;;;;;;;;14.20;87.20;;;;;;5044867;28;19917;-71
2022/09/24 02:01:46;;;;;;;;;;;14.20;87.20;;;;;;5045081;28;19913;-71
2022/09/24 02:04:14;;;;;;;;;;;14.20;87.30;;;;;;5044981;28;19913;-70
2022/09/24 02:06:49;;;;;;;;;;;14.20;87.30;;;;;;5045121;28;19917;-70
2022/09/24 02:09:32;;;;;;;;;;;14.20;87.30;;;;;;5045459;28;19916;-70
2022/09/24 02:12:01;;;;;;;;;;;14.20;87.30;;;;;;5041091;28;19995;-70
2022/09/24 02:14:28;;;;;;;;;;;14.20;87.40;;;;;;5046644;28;19916;-71
2022/09/24 02:16:54;;;;;;;;;;;14.20;87.40;;;;;;5044652;28;20389;-70
2022/09/24 02:19:24;;;;;;;;;;;14.10;87.40;;;;;;5044983;28;19971;-70
2022/09/24 02:21:49;;;;;;;;;;;14.20;87.50;;;;;;5040915;28;19959;-70
2022/09/24 02:24:21;;;;;;;;;;;14.10;87.60;;;;;;5044231;28;19955;-70
2022/09/24 02:26:47;;;;;;;;;;;14.20;87.50;;;;;;5045132;28;20612;-70
2022/09/24 02:29:13;;;;;;;;;;;14.10;87.50;;;;;;5045273;28;19920;-70
2022/09/24 02:31:46;;;;;;;;;;;14.20;87.60;;;;;;5044438;28;19909;-70
2022/09/24 02:34:20;;;;;;;;;;;14.10;87.60;;;;;;5026649;28;19917;-70
2022/09/24 02:36:53;;;;;;;;;;;14.10;87.50;;;;;;5026974;28;19920;-70
2022/09/24 02:39:19;;;;;;;;;;;14.10;87.60;;;;;;5044848;28;20389;-71
2022/09/24 02:41:48;;;;;;;;;;;14.10;87.60;;;;;;5044472;28;19920;-70
2022/09/24 02:44:15;;;;;;;;;;;14.10;87.60;;;;;;5044215;28;19913;-70
2022/09/24 02:46:41;;;;;;;;;;;14.10;87.70;;;;;;5043530;28;19973;-70
2022/09/24 02:49:10;;;;;;;;;;;14.10;87.80;;;;;;5043197;28;19923;-70
2022/09/24 02:51:36;;;;;;;;;;;14.10;87.80;;;;;;5039751;28;20390;-70
2022/09/24 02:54:01;;;;;;;;;;;14.10;87.80;;;;;;5042093;28;19945;-70
2022/09/24 02:56:27;;;;;;;;;;;14.10;87.80;;;;;;5043666;28;19967;-70
2022/09/24 02:58:53;;;;;;;;;;;14.10;87.90;;;;;;5043726;28;19913;-71
2022/09/24 03:01:19;;;;;;;;;;;14.10;87.90;;;;;;5043503;28;19956;-70
2022/09/24 03:03:44;;;;;;;;;;;14.10;87.80;;;;;;5043060;28;19913;-70
2022/09/24 03:06:12;;;;;;;;;;;14.10;87.90;;;;;;5026527;28;19917;-71
2022/09/24 03:08:38;;;;;;;;;;;14.10;88.00;;;;;;5043460;28;19916;-70
2022/09/24 03:11:03;;;;;;;;;;;14.10;87.90;;;;;;5026292;28;19928;-71
2022/09/24 03:13:29;;;;;;;;;;;14.10;88.00;;;;;;5044956;28;19916;-70
2022/09/24 03:15:54;;;;;;;;;;;14.10;88.00;;;;;;5044879;28;19920;-70
2022/09/24 03:18:20;;;;;;;;;;;14.10;88.10;;;;;;5048382;28;19919;-71
2022/09/24 03:20:58;;;;;;;;;;;14.10;88.10;;;;;;5048690;28;19916;-70
2022/09/24 03:23:24;;;;;;;;;;;14.10;88.10;;;;;;5048933;28;19924;-71
2022/09/24 03:25:50;;;;;;;;;;;14.10;88.10;;;;;;5048852;28;19922;-70
2022/09/24 03:28:16;;;;;;;;;;;14.10;88.10;;;;;;5049104;28;19913;-70
2022/09/24 03:31:00;;;;;;;;;;;14.10;87.90;;;;;;5048788;28;20042;-70
2022/09/24 03:33:26;;;;;;;;;;;14.10;88.20;;;;;;5042860;28;19982;-71
2022/09/24 03:35:57;;;;;;;;;;;14.10;88.20;;;;;;5048777;28;19917;-70
2022/09/24 03:38:23;;;;;;;;;;;14.00;88.20;;;;;;5048099;28;19955;-70
2022/09/24 03:40:49;;;;;;;;;;;14.00;88.20;;;;;;5046710;28;19960;-70
2022/09/24 03:43:14;;;;;;;;;;;14.00;88.30;;;;;;5046962;28;19920;-70
2022/09/24 03:45:40;;;;;;;;;;;14.00;88.30;;;;;;5047268;28;19912;-70
2022/09/24 03:48:05;;;;;;;;;;;14.00;88.20;;;;;;5046827;28;20098;-70
2022/09/24 03:50:31;;;;;;;;;;;14.00;88.40;;;;;;5047183;28;19920;-70
2022/09/24 03:52:56;;;;;;;;;;;14.00;88.40;;;;;;5047314;28;20337;-71
2022/09/24 03:55:22;;;;;;;;;;;14.00;88.40;;;;;;5042535;28;20030;-70
2022/09/24 03:57:47;;;;;;;;;;;14.00;88.40;;;;;;5046729;28;19913;-70
2022/09/24 04:00:13;;;;;;;;;;;14.00;88.40;;;;;;5046946;28;20004;-70
2022/09/24 04:02:39;;;;;;;;;;;14.00;88.50;;;;;;5040618;28;20537;-70
2022/09/24 04:05:05;;;;;;;;;;;14.00;88.40;;;;;;5046278;28;19919;-70
2022/09/24 04:07:30;;;;;;;;;;;14.00;88.40;;;;;;5049128;28;20011;-70
2022/09/24 04:09:56;;;;;;;;;;;14.00;88.40;;;;;;5046798;28;19917;-70
2022/09/24 04:12:22;;;;;;;;;;;14.00;88.50;;;;;;5046655;28;19920;-71
2022/09/24 04:14:48;;;;;;;;;;;14.00;88.60;;;;;;5028877;28;19916;-70
2022/09/24 04:17:13;;;;;;;;;;;14.00;88.60;;;;;;5046862;28;19909;-70
2022/09/24 04:19:39;;;;;;;;;;;14.00;88.60;;;;;;5046654;28;19978;-70
2022/09/24 04:22:04;;;;;;;;;;;14.00;88.70;;;;;;5046244;28;19948;-70
2022/09/24 04:24:30;;;;;;;;;;;13.90;88.70;;;;;;5045124;28;20564;-70
2022/09/24 04:26:55;;;;;;;;;;;13.90;88.70;;;;;;5046173;28;19912;-70
2022/09/24 04:29:21;;;;;;;;;;;13.90;88.60;;;;;;5045738;28;19917;-70
2022/09/24 04:31:46;;;;;;;;;;;13.90;88.80;;;;;;5045596;28;19917;-70
2022/09/24 04:34:13;;;;;;;;;;;13.90;88.80;;;;;;5043853;28;19947;-70
2022/09/24 04:36:38;;;;;;;;;;;13.90;88.80;;;;;;5046203;28;19939;-70
2022/09/24 04:39:04;;;;;;;;;;;13.90;88.90;;;;;;4984819;28;1763806;-70
2022/09/24 04:41:30;;;;;;;;;;;13.90;89.00;;;;;;5046651;28;20332;-70
2022/09/24 04:43:56;;;;;;;;;;;13.90;89.10;;;;;;5046815;28;19999;-70
2022/09/24 04:46:21;;;;;;;;;;;13.90;89.10;;;;;;5045991;28;19955;-70
2022/09/24 04:48:47;;;;;;;;;;;13.90;89.10;;;;;;5046876;28;19923;-70
2022/09/24 04:51:12;;;;;;;;;;;13.90;89.80;;;;;;5046409;28;19913;-70
2022/09/24 04:53:38;;;;;;;;;;;13.90;89.20;;;;;;5046752;28;20000;-71
2022/09/24 04:56:04;;;;;;;;;;;13.90;89.30;;;;;;5045009;28;19947;-70
2022/09/24 04:58:29;;;;;;;;;;;13.80;89.20;;;;;;5046726;28;20458;-70
2022/09/24 05:00:55;;;;;;;;;;;13.90;89.20;;;;;;5046169;28;19928;-70
2022/09/24 05:03:20;;;;;;;;;;;13.90;89.30;;;;;;5046903;28;19913;-70
2022/09/24 05:05:46;;;;;;;;;;;13.80;89.40;;;;;;5046745;28;20301;-70
2022/09/24 05:08:12;;;;;;;;;;;13.80;89.40;;;;;;5028777;28;19982;-70
2022/09/24 05:10:38;;;;;;;;;;;13.80;89.40;;;;;;5028290;28;19913;-70
2022/09/24 05:13:04;;;;;;;;;;;13.80;89.50;;;;;;5046958;28;19917;-71
2022/09/24 05:15:29;;;;;;;;;;;13.80;89.50;;;;;;5046713;28;19952;-71
2022/09/24 05:17:55;;;;;;;;;;;13.80;89.60;;;;;;5046562;28;19917;-70
2022/09/24 05:20:20;;;;;;;;;;;13.80;89.70;;;;;;5046594;28;20273;-70
2022/09/24 05:22:47;;;;;;;;;;;13.80;89.60;;;;;;5028313;28;19913;-70
2022/09/24 05:25:13;;;;;;;;;;;13.80;89.70;;;;;;5045557;28;19912;-71
2022/09/24 05:27:45;;;;;;;;;;;13.80;89.70;;;;;;5046563;28;19923;-70
2022/09/24 05:30:11;;;;;;;;;;;13.80;89.70;;;;;;5046620;28;20606;-70
2022/09/24 05:32:36;;;;;;;;;;;13.80;89.80;;;;;;5046402;28;19912;-70
2022/09/24 05:35:02;;;;;;;;;;;13.80;89.80;;;;;;5046313;28;19927;-70
2022/09/24 05:37:27;;;;;;;;;;;13.80;89.80;;;;;;5046225;28;20008;-70
2022/09/24 05:39:53;;;;;;;;;;;13.80;89.80;;;;;;5045733;28;19972;-71
2022/09/24 05:42:19;;;;;;;;;;;13.80;89.90;;;;;;5046145;28;19916;-70
2022/09/24 05:44:45;;;;;;;;;;;13.80;89.90;;;;;;5045830;28;19920;-70
2022/09/24 05:47:10;;;;;;;;;;;13.80;89.90;;;;;;5046299;28;19913;-70
2022/09/24 05:49:36;;;;;;;;;;;13.80;90.00;;;;;;5046204;28;20019;-70
2022/09/24 05:52:01;;;;;;;;;;;13.80;90.00;;;;;;5046165;28;19921;-71
2022/09/24 05:54:27;;;;;;;;;;;13.80;90.00;;;;;;5042015;28;19949;-70
2022/09/24 05:56:52;;;;;;;;;;;13.70;89.90;;;;;;5046285;28;19909;-70
2022/09/24 05:59:18;;;;;;;;;;;13.80;90.00;;;;;;5045941;28;19909;-70
2022/09/24 06:01:43;;;;;;;;;;;13.70;89.90;;;;;;5045921;28;19939;-70
2022/09/24 06:04:10;;;;;;;;;;;13.70;89.90;;;;;;5046218;28;19995;-70
2022/09/24 06:06:36;;;;;;;;;;;13.80;90.00;;;;;;5046114;28;19913;-70
2022/09/24 06:09:02;;;;;;;;;;;13.70;90.00;;;;;;5045595;28;20440;-71
2022/09/24 06:11:32;;;;;;;;;;;13.70;90.00;;;;;;5027688;28;19975;-70
2022/09/24 06:13:58;;;;;;;;;;;13.80;90.00;;;;;;5048351;28;20575;-70
2022/09/24 06:16:23;;;;;;;;;;;13.80;90.00;;;;;;5045704;28;19999;-71
2022/09/24 06:18:48;;;;;;;;;;;13.80;90.00;;;;;;5045788;28;19917;-71
2022/09/24 06:21:16;;;;;;;;;;;13.70;90.00;;;;;;5045142;28;19912;-70
2022/09/24 06:23:44;;;;;;;;;;;13.80;90.00;;;;;;5045638;28;19966;-70
2022/09/24 06:26:11;;;;;;;;;;;13.80;90.00;;;;;;5044757;28;20003;-70
2022/09/24 06:28:37;;;;;;;;;;;13.80;90.00;;;;;;5045301;28;19916;-71
2022/09/24 06:31:03;;;;;;;;;;;13.80;90.00;;;;;;5045015;28;19912;-71
2022/09/24 06:33:29;;;;;;;;;;;13.80;90.00;;;;;;5043442;28;19913;-70
2022/09/24 06:35:58;;;;;;;;;;;13.80;90.00;;;;;;5045129;28;19912;-70
2022/09/24 06:38:23;;;;;;;;;;;13.80;90.00;;;;;;5044794;28;20329;-71
2022/09/24 06:40:49;;;;;;;;;;;13.80;90.00;;;;;;5044444;28;19920;-70
2022/09/24 06:43:14;;;;;;;;;;;13.90;90.00;;;;;;5044785;28;19994;-70
2022/09/24 06:45:41;;;;;;;;;;;13.90;90.00;;;;;;5044795;28;19913;-71
2022/09/24 06:48:08;;;;;;;;;;;13.90;90.00;;;;;;5044695;28;19913;-71
2022/09/24 06:50:34;;;;;;;;;;;13.80;90.00;;;;;;5025950;28;19913;-70
2022/09/24 06:52:59;;;;;;;;;;;13.90;89.90;;;;;;5045052;28;19917;-70
2022/09/24 06:55:25;;;;;;;;;;;13.90;89.90;;;;;;5041138;28;19941;-70
2022/09/24 06:58:00;;;;;;;;;;;13.90;90.00;;;;;;5044691;28;20328;-71
2022/09/24 07:00:25;;;;;;;;;;;13.90;89.90;;;;;;5027085;28;19957;-71
2022/09/24 07:02:51;;;;;;;;;;;13.90;89.90;;;;;;5045092;28;19932;-71
2022/09/24 07:05:16;;;;;;;;;;;14.00;89.90;;;;;;5045019;28;19913;-71
2022/09/24 07:07:42;;;;;;;;;;;14.00;90.00;;;;;;5045295;28;19913;-70
2022/09/24 07:10:09;;;;;;;;;;;14.00;89.80;;;;;;5027231;28;19920;-70
2022/09/24 07:12:35;;;;;;;;;;;14.00;89.90;;;;;;5044862;28;20442;-71
2022/09/24 07:15:00;;;;;;;;;;;14.00;89.80;;;;;;5044617;28;19952;-70
2022/09/24 07:17:26;;;;;;;;;;;14.10;89.90;;;;;;5044891;28;19959;-70
2022/09/24 07:19:52;;;;;;;;;;;14.10;89.80;;;;;;5044961;28;19952;-70
2022/09/24 07:22:17;;;;;;;;;;;14.10;89.80;;;;;;5044824;28;19913;-70
2022/09/24 07:24:43;;;;;;;;;;;14.10;89.90;;;;;;5044580;28;19909;-70
2022/09/24 07:27:09;;;;;;;;;;;14.10;89.90;;;;;;5026905;28;19909;-70
2022/09/24 07:29:34;;;;;;;;;;;14.10;89.80;;;;;;5044346;28;19913;-70
2022/09/24 07:32:00;;;;;;;;;;;14.20;89.70;;;;;;5043464;28;19928;-70
2022/09/24 07:34:26;;;;;;;;;;;14.20;89.60;;;;;;5044314;28;20317;-70
2022/09/24 07:36:54;;;;;;;;;;;14.20;89.50;;;;;;5045398;28;19912;-70
2022/09/24 07:39:20;;;;;;;;;;;14.30;89.60;;;;;;5043764;28;20385;-71
2022/09/24 07:41:45;;;;;;;;;;;14.30;89.50;;;;;;5043549;28;19924;-70
2022/09/24 07:44:11;;;;;;;;;;;14.30;89.50;;;;;;5043766;28;19913;-70
2022/09/24 07:46:36;;;;;;;;;;;14.30;89.50;;;;;;5044863;28;20332;-71
2022/09/24 07:49:02;;;;;;;;;;;14.40;89.50;;;;;;5044488;28;19924;-70
2022/09/24 07:51:28;;;;;;;;;;;14.40;89.40;;;;;;5044265;28;20409;-70
2022/09/24 07:53:54;;;;;;;;;;;14.40;89.30;;;;;;5026290;28;19913;-71
2022/09/24 07:56:20;;;;;;;;;;;14.50;89.20;;;;;;5010690;28;19916;-71
2022/09/24 07:58:49;;;;;;;;;;;14.50;89.20;;;;;;5044663;28;19912;-70
2022/09/24 08:01:16;;;;;;;;;;;14.50;89.20;;;;;;5044293;28;19936;-70
2022/09/24 08:03:42;;;;;;;;;;;14.60;89.10;;;;;;5046651;28;19913;-70
2022/09/24 08:06:08;;;;;;;;;;;14.60;88.90;;;;;;5047772;28;19971;-70
2022/09/24 08:08:34;;;;;;;;;;;14.60;88.90;;;;;;5047899;28;19955;-71
2022/09/24 08:11:06;;;;;;;;;;;14.60;88.70;;;;;;5047714;28;19923;-70
2022/09/24 08:13:33;;;;;;;;;;;14.70;88.90;;;;;;5048266;28;19952;-70
2022/09/24 08:15:59;;;;;;;;;;;14.60;88.80;;;;;;5048062;28;19943;-70
2022/09/24 08:18:24;;;;;;;;;;;14.70;88.80;;;;;;5048330;28;20385;-70
2022/09/24 08:20:50;;;;;;;;;;;14.70;88.80;;;;;;5049079;28;20530;-70
2022/09/24 08:23:15;;;;;;;;;;;14.70;88.70;;;;;;5047158;28;19921;-70
2022/09/24 08:25:41;;;;;;;;;;;14.70;88.70;;;;;;5047900;28;19946;-71
2022/09/24 08:28:07;;;;;;;;;;;14.70;88.70;;;;;;5047636;28;20437;-71
2022/09/24 08:30:33;;;;;;;;;;;14.70;88.60;;;;;;5047451;28;19919;-70
2022/09/24 08:32:58;;;;;;;;;;;14.80;88.60;;;;;;5047602;28;20362;-70
2022/09/24 08:35:24;;;;;;;;;;;14.80;88.50;;;;;;5047591;28;19921;-70
2022/09/24 08:37:52;;;;;;;;;;;14.80;88.70;;;;;;5047517;28;20054;-70
2022/09/24 08:40:20;;;;;;;;;;;14.80;88.50;;;;;;5046064;28;20017;-70
2022/09/24 08:42:49;;;;;;;;;;;14.90;88.40;;;;;;5046249;28;19958;-70
2022/09/24 08:48:12;;;;;;;;;;;14.90;88.20;;;;;;5047420;28;19970;-70
2022/09/24 08:50:40;;;;;;;;;;;15.00;88.20;;;;;;5047198;28;19912;-71
2022/09/24 08:53:25;;;;;;;;;;;15.00;88.00;;;;;;5047531;28;19943;-70
2022/09/24 08:55:55;;;;;;;;;;;15.10;88.00;;;;;;5047359;28;19924;-70
2022/09/24 08:58:43;;;;;;;;;;;15.10;87.70;;;;;;5045895;28;19959;-70
2022/09/24 09:01:08;;;;;;;;;;;15.20;87.60;;;;;;5044689;28;19920;-70
2022/09/24 09:03:46;;;;;;;;;;;15.20;87.60;;;;;;5046950;28;19916;-70
2022/09/24 09:06:30;;;;;;;;;;;15.30;87.50;;;;;;5047132;28;20296;-70
2022/09/24 09:09:06;;;;;;;;;;;15.30;87.30;;;;;;5047030;28;19975;-70
2022/09/24 09:11:33;;;;;;;;;;;15.40;87.20;;;;;;5045805;28;19912;-70
2022/09/24 09:14:02;;;;;;;;;;;15.50;87.00;;;;;;5046707;28;19955;-70
2022/09/24 09:16:38;;;;;;;;;;;15.50;86.90;;;;;;5046580;28;19955;-70
2022/09/24 09:19:05;;;;;;;;;;;15.50;86.90;;;;;;5046340;28;19970;-71
2022/09/24 09:21:39;;;;;;;;;;;15.60;87.00;;;;;;5046241;28;19932;-70
2022/09/24 09:24:06;;;;;;;;;;;15.60;86.70;;;;;;5041554;28;19913;-71
2022/09/24 09:26:31;;;;;;;;;;;15.70;86.50;;;;;;5047072;28;19919;-70
2022/09/24 09:28:59;;;;;;;;;;;15.70;86.60;;;;;;5047086;28;19913;-70
2022/09/24 09:31:43;;;;;;;;;;;15.70;86.50;;;;;;5042145;28;19909;-71
2022/09/24 09:34:28;;;;;;;;;;;15.70;86.40;;;;;;5045892;28;19971;-71
2022/09/24 09:37:13;;;;;;;;;;;15.80;86.20;;;;;;5046376;28;20392;-70
2022/09/24 09:39:38;;;;;;;;;;;15.80;86.20;;;;;;5046082;28;20003;-71
2022/09/24 09:42:14;;;;;;;;;;;15.90;86.20;;;;;;5046100;28;19916;-70
2022/09/24 09:44:42;;;;;;;;;;;15.90;86.00;;;;;;5042638;28;19909;-71
2022/09/24 09:47:14;;;;;;;;;;;16.00;85.90;;;;;;5028261;28;19963;-70
2022/09/24 09:49:42;;;;;;;;;;;16.00;85.80;;;;;;5046154;28;20539;-71
2022/09/24 09:52:12;;;;;;;;;;;16.00;85.70;;;;;;5046138;28;20274;-70
2022/09/24 09:54:38;;;;;;;;;;;16.10;85.70;;;;;;5042956;28;19991;-70
2022/09/24 09:57:10;;;;;;;;;;;16.10;85.80;;;;;;5045800;28;19913;-70
2022/09/24 09:59:36;;;;;;;;;;;16.10;85.90;;;;;;5046169;28;19913;-70
2022/09/24 10:02:08;;;;;;;;;;;16.10;85.60;;;;;;5045902;28;20489;-71
2022/09/24 10:04:34;;;;;;;;;;;16.20;85.50;;;;;;5046065;28;19920;-71
2022/09/24 10:07:17;;;;;;;;;;;16.20;85.40;;;;;;5045798;28;20308;-70
2022/09/24 10:09:44;;;;;;;;;;;16.30;86.00;;;;;;5045226;28;19971;-70
2022/09/24 10:12:21;;;;;;;;;;;16.30;85.30;;;;;;5045369;28;19917;-70
2022/09/24 10:15:03;;;;;;;;;;;16.30;85.30;;;;;;5045700;28;20360;-71
2022/09/24 10:17:38;;;;;;;;;;;16.40;85.20;;;;;;5027535;28;20504;-71
2022/09/24 10:20:08;;;;;;;;;;;16.40;85.20;;;;;;5047183;28;19923;-70
2022/09/24 10:22:34;;;;;;;;;;;16.50;85.10;;;;;;5045160;28;19913;-71
2022/09/24 10:25:00;;;;;;;;;;;16.50;84.90;;;;;;5027213;28;19921;-70
2022/09/24 10:27:33;;;;;;;;;;;16.50;84.70;;;;;;5045028;28;19913;-70
2022/09/24 10:32:47;;;;;;;;;;;16.60;84.60;;;;;;5044704;28;19971;-71
2022/09/24 10:35:19;;;;;;;;;;;16.70;84.70;;;;;;5044846;28;19939;-71
2022/09/24 10:37:51;;;;;;;;;;;16.70;84.50;;;;;;5044839;28;19943;-71
2022/09/24 10:40:22;;;;;;;;;;;16.70;85.10;;;;;;5042862;28;19923;-71
2022/09/24 10:42:53;;;;;;;;;;;16.80;84.30;;;;;;5043704;28;19916;-71
2022/09/24 10:45:19;;;;;;;;;;;16.80;84.20;;;;;;5045173;28;20635;-71
2022/09/24 10:48:11;;;;;;;;;;;16.90;84.10;;;;;;5045495;28;19917;-70
2022/09/24 10:50:41;;;;;;;;;;;16.90;84.00;;;;;;5040846;28;20003;-71
2022/09/24 10:53:12;;;;;;;;;;;17.00;84.00;;;;;;5045159;28;19913;-70
2022/09/24 10:55:56;;;;;;;;;;;17.00;83.70;;;;;;5042339;28;20249;-70
2022/09/24 10:58:36;;;;;;;;;;;17.00;83.70;;;;;;5044655;28;20369;-71
2022/09/24 11:01:02;;;;;;;;;;;17.10;83.50;;;;;;5044839;28;20437;-70
2022/09/24 11:03:46;;;;;;;;;;;17.10;83.50;;;;;;5041663;28;19913;-71
2022/09/24 11:06:17;;;;;;;;;;;17.10;83.50;;;;;;5044958;28;20478;-71
2022/09/24 11:08:59;;;;;;;;;;;17.20;83.90;;;;;;5045378;28;19935;-70
2022/09/24 11:11:43;;;;;;;;;;;17.20;83.40;;;;;;5044876;28;19924;-70
2022/09/24 11:14:12;;;;;;;;;;;17.20;83.30;;;;;;5041368;28;19920;-71
2022/09/24 11:16:37;;;;;;;;;;;17.30;83.30;;;;;;5045463;28;20448;-71
2022/09/24 11:19:27;;;;;;;;;;;17.30;83.10;;;;;;5044903;28;19963;-70
2022/09/24 11:21:56;;;;;;;;;;;17.30;83.10;;;;;;5043333;28;19927;-71
2022/09/24 11:24:30;;;;;;;;;;;17.40;83.10;;;;;;5044690;28;19946;-71
2022/09/24 11:27:07;;;;;;;;;;;17.40;83.70;;;;;;5045203;28;19913;-70
2022/09/24 11:29:40;;;;;;;;;;;17.40;83.10;;;;;;5044889;28;19913;-71
2022/09/24 11:32:12;;;;;;;;;;;17.40;83.00;;;;;;5044426;28;20627;-70
2022/09/24 11:34:51;;;;;;;;;;;17.40;82.60;;;;;;5042990;28;20369;-70
2022/09/24 11:37:43;;;;;;;;;;;17.50;83.00;;;;;;5041751;28;19917;-70
2022/09/24 11:40:14;;;;;;;;;;;17.50;83.00;;;;;;5044811;28;19980;-70
2022/09/24 11:42:58;;;;;;;;;;;17.50;83.00;;;;;;5046877;28;20016;-70
2022/09/24 11:45:42;;;;;;;;;;;17.50;82.90;;;;;;5047590;28;19924;-71
2022/09/24 11:48:26;;;;;;;;;;;17.50;83.00;;;;;;5047561;28;19913;-71
2022/09/24 11:50:54;;;;;;;;;;;17.50;83.10;;;;;;5046236;28;19913;-71
2022/09/24 11:53:25;;;;;;;;;;;17.50;83.00;;;;;;5048018;28;19917;-71
2022/09/24 11:55:54;;;;;;;;;;;17.50;83.00;;;;;;5046476;28;20004;-70
2022/09/24 11:58:25;;;;;;;;;;;17.60;83.10;;;;;;5048316;28;19940;-70
2022/09/24 12:00:55;;;;;;;;;;;17.60;83.00;;;;;;5047827;28;20247;-71
2022/09/24 12:03:30;;;;;;;;;;;17.60;83.10;;;;;;5048146;28;20381;-71
2022/09/24 12:05:59;;;;;;;;;;;17.50;83.10;;;;;;5044479;28;20136;-71
2022/09/24 12:08:38;;;;;;;;;;;17.50;83.40;;;;;;5048053;28;19917;-71
2022/09/24 12:11:29;;;;;;;;;;;17.50;83.30;;;;;;5045920;28;19921;-71
2022/09/24 12:14:00;;;;;;;;;;;17.50;83.40;;;;;;5039841;28;19912;-70
2022/09/24 12:16:27;;;;;;;;;;;17.50;83.60;;;;;;5048049;28;19912;-70
2022/09/24 12:19:11;;;;;;;;;;;17.50;83.60;;;;;;5047551;28;19913;-71
2022/09/24 12:21:41;;;;;;;;;;;17.50;83.60;;;;;;5046755;28;19923;-71
2022/09/24 12:24:12;;;;;;;;;;;17.50;83.80;;;;;;5047928;28;20366;-71
2022/09/24 12:26:38;;;;;;;;;;;17.50;83.80;;;;;;5047989;28;19912;-70
2022/09/24 12:34:57;;;;;;;;;;;17.50;83.60;;;;;;5047399;28;19920;-70
2022/09/24 12:37:26;;;;;;;;;;;17.60;83.60;;;;;;5047577;28;19924;-70
2022/09/24 12:39:56;;;;;;;;;;;17.60;83.40;;;;;;5047390;28;19931;-71
2022/09/24 12:42:23;;;;;;;;;;;17.70;83.40;;;;;;5047532;28;19913;-71
2022/09/24 12:44:52;;;;;;;;;;;17.70;83.20;;;;;;5047494;28;20313;-71
2022/09/24 12:47:22;;;;;;;;;;;17.80;83.10;;;;;;5047461;28;19920;-70
2022/09/24 12:49:50;;;;;;;;;;;17.80;82.90;;;;;;5046721;28;20457;-71
2022/09/24 12:52:20;;;;;;;;;;;17.80;82.80;;;;;;5047201;28;19913;-70
2022/09/24 12:54:52;;;;;;;;;;;17.90;82.70;;;;;;5046249;28;19916;-70
2022/09/24 12:57:19;;;;;;;;;;;17.90;82.70;;;;;;5047247;28;19913;-70
2022/09/24 12:59:46;;;;;;;;;;;18.00;82.60;;;;;;5047580;28;19912;-70
2022/09/24 13:02:16;;;;;;;;;;;18.00;82.50;;;;;;5047135;28;19917;-70
2022/09/24 13:04:43;;;;;;;;;;;18.00;82.60;;;;;;5047237;28;19951;-70
2022/09/24 13:07:34;;;;;;;;;;;18.00;82.70;;;;;;5046724;28;20325;-70
2022/09/24 13:10:15;;;;;;;;;;;18.00;82.90;;;;;;5042972;28;20335;-70
2022/09/24 13:12:41;;;;;;;;;;;17.90;82.90;;;;;;5046620;28;20007;-70
2022/09/24 13:15:18;;;;;;;;;;;17.90;83.10;;;;;;5047018;28;20002;-70
2022/09/24 13:17:45;;;;;;;;;;;17.90;83.40;;;;;;5047034;28;19913;-70
2022/09/24 13:20:22;;;;;;;;;;;17.80;83.60;;;;;;5046797;28;19924;-71
2022/09/24 13:22:55;;;;;;;;;;;17.80;83.80;;;;;;5046478;28;20003;-70
2022/09/24 13:25:22;;;;;;;;;;;17.80;83.80;;;;;;5046274;28;19924;-71
2022/09/24 13:27:59;;;;;;;;;;;17.80;84.00;;;;;;5046772;28;20561;-71
2022/09/24 13:30:34;;;;;;;;;;;17.70;84.10;;;;;;5046438;28;19913;-70
2022/09/24 13:33:20;;;;;;;;;;;17.70;84.20;;;;;;5028659;28;20002;-71
2022/09/24 13:35:51;;;;;;;;;;;17.70;84.30;;;;;;5042309;28;20646;-70
2022/09/24 13:38:19;;;;;;;;;;;17.70;84.30;;;;;;5041995;28;20396;-70
2022/09/24 13:40:50;;;;;;;;;;;17.70;84.40;;;;;;5026370;28;19928;-71
2022/09/24 13:43:34;;;;;;;;;;;17.60;84.40;;;;;;5046209;28;19912;-70
2022/09/24 13:46:00;;;;;;;;;;;17.70;84.50;;;;;;5046521;28;19908;-71
2022/09/24 13:48:29;;;;;;;;;;;17.60;84.50;;;;;;5046158;28;20527;-70
2022/09/24 13:50:55;;;;;;;;;;;17.70;84.60;;;;;;5046081;28;19912;-70
2022/09/24 13:53:27;;;;;;;;;;;17.60;84.70;;;;;;5046216;28;19912;-70
2022/09/24 13:55:54;;;;;;;;;;;17.70;84.80;;;;;;5044653;28;20015;-71
2022/09/24 13:58:26;;;;;;;;;;;17.60;84.80;;;;;;5045791;28;19923;-71
2022/09/24 14:00:52;;;;;;;;;;;17.60;84.90;;;;;;5045398;28;19998;-71
2022/09/24 14:03:21;;;;;;;;;;;17.60;84.90;;;;;;5028537;28;19915;-71
2022/09/24 14:05:48;;;;;;;;;;;17.60;85.00;;;;;;5045920;28;19917;-71
2022/09/24 14:08:15;;;;;;;;;;;17.60;85.10;;;;;;5046196;28;20710;-71
2022/09/24 14:10:42;;;;;;;;;;;17.50;85.10;;;;;;5045243;28;19932;-71
2022/09/24 14:13:16;;;;;;;;;;;17.50;85.20;;;;;;5046095;28;19916;-70
2022/09/24 14:15:51;;;;;;;;;;;17.50;85.30;;;;;;5048494;28;20618;-70
2022/09/24 14:18:17;;;;;;;;;;;17.50;85.40;;;;;;5045880;28;19913;-71
2022/09/24 14:20:43;;;;;;;;;;;17.50;85.40;;;;;;5045253;28;20536;-71
2022/09/24 14:23:14;;;;;;;;;;;17.40;85.40;;;;;;5045481;28;19908;-71
2022/09/24 14:25:41;;;;;;;;;;;17.40;85.50;;;;;;5044263;28;19963;-71
2022/09/24 14:28:06;;;;;;;;;;;17.40;85.50;;;;;;5042344;28;19924;-71
2022/09/24 14:30:34;;;;;;;;;;;17.40;85.60;;;;;;5045394;28;19913;-71
2022/09/24 14:33:02;;;;;;;;;;;17.40;85.70;;;;;;5045674;28;19912;-70
2022/09/24 14:35:30;;;;;;;;;;;17.30;85.70;;;;;;5045695;28;20364;-71
2022/09/24 14:38:13;;;;;;;;;;;17.30;85.70;;;;;;5045153;28;19916;-71
2022/09/24 14:40:59;;;;;;;;;;;17.30;85.70;;;;;;5027215;28;19921;-71
2022/09/24 14:43:30;;;;;;;;;;;17.30;85.80;;;;;;5042129;28;20019;-71